Minneapolis, Minnesota
Traffic Map
Current Weather Conditions
Minneapolis, Minnesota
Overcast
Overcast
35°
Feels Like: 25°
Wind Chill: 25° Ceiling: 1500
Heat Index: 35° Visibility: 9mi
Dew Point: 31° Wind: 16mph
Humidity: 85% Direction: 340° (NNW)
Pressure: 29.8in Gusts: 24mph
Raw Report DataKMSP 111753Z 34014G21KT 9SM BKN015 OVC025 02/M01 A2980 RMK AO2 SLP102 4/003 60010 I6000 T00171006 10017 21017 53027
Traffic Incident Summary
Active as of:
Severity:
Category:
InformationThere was an issue retrieving the traffic information for this location. Please try a different location or try again shortly.
Advertisements